Latest Coastal Weather Observations for Double Island Point

IDQ60701

Issued at 7:21 pm EST Tuesday 7 July 2015 (issued every 10 minutes, with the page automatically refreshed every 10 minutes)

About coastal observations | Map of coastal stations | Coastal observations for QLD | Marine services | Other Formats
Station Details ID: 040068 Name: DOUBLE ISLAND POINT LIGHTHOUSE Lat: -25.93 Lon: 153.19 Height: 95.64 m
Data from the previous 72 hours. | See also: Recent months at Double Island Point
Date/Time
EST
Temp

°C
Wind Pressure Rain
since 9am
mm
Weather Cloud Vis
km
Sea
Height
m
Swell
Dir
 
Speed
knots
Gust
knots
hPa Trend Height
m
Period
s
Dir
07/07:00pm 18.7 SE 22 25 1018.2 - 0.0 - - - - - - -
07/06:30pm 18.7 SE 23 26 1018.0 - 0.0 - - - - - - -
07/06:00pm 18.6 SE 22 25 1017.8 - 0.0 - - - - - - -
07/05:30pm 18.4 SE 19 22 1017.5 - 0.0 - - - - - - -
07/05:00pm 18.6 SE 18 22 1017.2 - 0.0 - - - - - - -
07/04:30pm 18.8 SSE 18 21 1016.8 - 0.0 - - - - - - -
07/04:00pm 19.0 SE 18 21 1016.5 - 0.0 - - - - - - -
07/03:30pm 19.5 SSE 15 19 1016.3 - 0.0 - - - - - - -
07/03:00pm 20.1 SSE 13 16 1016.1 - 0.0 - - - - - - -
07/02:30pm 20.2 SSE 13 17 1016.0 - 0.0 - - - - - - -
07/02:00pm 20.4 SSE 13 17 1015.9 - 0.0 - - - - - - -
07/01:30pm 20.6 SSE 11 14 1016.0 - 0.0 - - - - - - -
07/01:00pm 21.1 S 10 13 1016.1 - 0.0 - - - - - - -
07/12:30pm 21.0 SSE 7 10 1016.4 - 0.0 - - - - - - -
07/12:00pm 20.4 SE 7 9 1016.8 - 0.0 - - - - - - -
07/11:30am 20.5 SSE 5 7 1017.2 - 0.0 - - - - - - -
07/11:00am 19.8 S 9 12 1017.6 - 0.0 - - - - - - -
07/10:30am 19.6 SSW 10 14 1017.8 - 0.0 - - - - - - -
07/10:00am 19.3 S 12 14 1017.9 - 0.0 - - - - - - -
07/09:30am 19.0 S 11 14 1018.2 - 0.0 - - - - - - -
07/09:00am 18.8 S 9 13 1018.1 - 0.2 - - - - - - -
07/08:30am 18.3 S 11 14 1017.9 - 0.2 - - - - - - -
07/08:00am 18.5 SW 11 13 1017.8 - 0.2 - - - - - - -
07/07:30am 17.3 SW 13 16 1017.5 - 0.2 - - - - - - -
07/07:00am 16.9 SW 13 16 1017.2 - 0.2 - - - - - - -
07/06:30am 16.7 WSW 12 16 1017.0 - 0.2 - - - - - - -
07/06:00am 16.7 W 13 17 1016.5 - 0.2 - - - - - - -
07/05:30am 16.8 W 15 22 1016.2 - 0.2 - - - - - - -
07/05:00am 16.7 W 16 24 1015.9 - 0.2 - - - - - - -
07/04:30am 16.8 WNW 16 21 1015.9 - 0.2 - - - - - - -
07/04:00am 16.6 WNW 17 21 1016.0 - 0.2 - - - - - - -
07/03:30am 16.4 WNW 17 20 1016.1 - 0.2 - - - - - - -
07/03:00am 16.2 WNW 17 20 1016.1 - 0.2 - - - - - - -
07/02:30am 16.2 WNW 15 19 1016.3 - 0.2 - - - - - - -
07/02:00am 16.6 WNW 15 19 1016.3 - 0.2 - - - - - - -
07/01:30am 16.7 WNW 16 20 1016.3 - 0.2 - - - - - - -
07/01:00am 16.6 NW 15 19 1016.6 - 0.2 - - - - - - -
07/12:30am 16.6 NW 15 18 1016.7 - 0.2 - - - - - - -
07/12:00am 16.5 NW 13 15 1016.9 - 0.2 - - - - - - -
 
Date/Time
EST
Temp

°C
Wind Pressure Rain
since 9am
mm
Weather Cloud Vis
km
Sea
Height
m
Swell
Dir
 
Speed
knots
Gust
knots
hPa Trend Height
m
Period
s
Dir
06/11:30pm 16.8 NW 13 16 1017.1 - 0.2 - - - - - - -
06/11:00pm 16.9 NW 13 15 1017.2 - 0.2 - - - - - - -
06/10:30pm 17.3 NW 14 16 1017.4 - 0.2 - - - - - - -
06/10:00pm 17.5 NNW 14 16 1017.4 - 0.2 - - - - - - -
06/09:30pm 17.6 NW 13 16 1017.5 - 0.2 - - - - - - -
06/09:00pm 18.6 NNW 7 13 1017.4 - 0.2 - - - - - - -
06/08:30pm 18.3 N 4 6 1017.5 - 0.2 - - - - - - -
06/08:00pm 18.3 N 3 5 1017.3 - 0.2 - - - - - - -
06/07:30pm 18.4 N 3 5 1017.3 - 0.2 - - - - - - -
06/07:00pm 18.6 NNW 4 7 1017.1 - 0.2 - - - - - - -
06/06:30pm 18.4 N 3 5 1017.0 - 0.2 - - - - - - -
06/06:00pm 18.4 N 3 5 1016.8 - 0.2 - - - - - - -
06/05:30pm 18.7 N 4 6 1016.5 - 0.2 - - - - - - -
06/05:00pm 19.4 NNW 3 7 1016.4 - 0.2 - - - - - - -
06/04:30pm 20.1 NNW 4 7 1016.3 - 0.2 - - - - - - -
06/04:00pm 21.2 NNW 4 10 1016.3 - 0.2 - - - - - - -
06/03:30pm 21.9 N 3 6 1016.3 - 0.2 - - - - - - -
06/03:00pm 23.2 NNW 4 5 1016.5 - 0.2 - - - - - - -
06/02:30pm 22.7 NNW 8 12 1016.6 - 0.2 - - - - - - -
06/02:00pm 23.0 NNW 7 11 1016.8 - 0.2 - - - - - - -
06/01:30pm 23.3 NNW 10 12 1016.8 - 0.2 - - - - - - -
06/01:00pm 22.9 NNW 7 11 1017.3 - 0.2 - - - - - - -
06/12:30pm 23.4 NNW 7 10 1017.7 - 0.2 - - - - - - -
06/12:00pm 22.8 NNW 6 10 1018.3 - 0.2 Recent precip. - - - - - -
06/11:30am 21.8 NW 7 9 1018.7 - 0.2 - - - - - - -
06/11:00am 20.4 WNW 8 10 1019.3 - 0.0 - - - - - - -
06/10:30am 19.5 NW 9 10 1019.6 - 0.0 - - - - - - -
06/10:00am 20.0 WNW 7 9 1019.7 - 0.0 - - - - - - -
06/09:30am 19.7 WNW 5 7 1020.0 - 0.0 - - - - - - -
06/09:00am 19.1 W 6 8 1020.1 - 0.0 - - - - - - -
06/08:30am 17.7 W 8 10 1020.0 - 0.0 - - - - - - -
06/08:00am 17.8 W 9 10 1019.8 - 0.0 - - - - - - -
06/07:30am 17.5 W 9 10 1019.6 - 0.0 - - - - - - -
06/07:00am 17.3 W 8 10 1019.4 - 0.0 - - - - - - -
06/06:30am 17.3 W 9 10 1019.3 - 0.0 - - - - - - -
06/06:00am 17.4 W 9 11 1019.2 - 0.0 - - - - - - -
06/05:30am 17.4 WNW 8 10 1019.2 - 0.0 - - - - - - -
06/05:00am 17.6 W 7 10 1019.0 - 0.0 - - - - - - -
06/04:30am 17.7 W 9 11 1019.0 - 0.0 - - - - - - -
06/04:00am 17.7 W 10 11 1019.0 - 0.0 - - - - - - -
06/03:30am 17.8 W 9 10 1019.2 - 0.0 - - - - - - -
06/03:00am 17.5 W 8 9 1019.4 - 0.0 - - - - - - -
06/02:30am 17.6 WNW 8 9 1019.6 - 0.0 - - - - - - -
06/02:00am 17.6 CALM 0 0 1019.9 - 0.0 - - - - - - -
06/01:30am 17.7 N 1 4 1020.3 - 0.0 - - - - - - -
06/01:00am 18.0 W 6 7 1020.5 - 0.0 - - - - - - -
06/12:30am 18.1 WNW 6 7 1020.6 - 0.0 - - - - - - -
06/12:00am 18.0 NW 5 6 1020.7 - 0.0 - - - - - - -
 
Date/Time
EST
Temp

°C
Wind Pressure Rain
since 9am
mm
Weather Cloud Vis
km
Sea
Height
m
Swell
Dir
 
Speed
knots
Gust
knots
hPa Trend Height
m
Period
s
Dir
05/11:30pm 18.0 NW 4 4 1020.8 - 0.0 - - - - - - -
05/11:00pm 18.0 N 1 3 1020.8 - 0.0 - - - - - - -
05/10:30pm 18.1 NNE 3 4 1021.0 - 0.0 - - - - - - -
05/10:00pm 18.0 N 2 4 1021.2 - 0.0 - - - - - - -
05/09:30pm 18.1 N 3 4 1021.2 - 0.0 - - - - - - -
05/09:00pm 18.6 NE 3 4 1021.1 - 0.0 - - - - - - -
05/08:30pm 18.3 E 4 5 1021.0 - 0.0 - - - - - - -
05/08:00pm 18.4 ENE 6 7 1021.0 - 0.0 - - - - - - -
05/07:30pm 18.2 E 8 11 1020.8 - 0.0 - - - - - - -
05/07:00pm 18.3 ESE 8 10 1020.7 - 0.0 - - - - - - -
05/06:30pm 18.1 ESE 9 11 1020.5 - 0.0 - - - - - - -
05/06:00pm 17.7 E 8 10 1020.4 - 0.0 - - - - - - -
05/05:30pm 17.6 E 8 10 1020.0 - 0.0 - - - - - - -
05/05:00pm 18.0 ENE 6 7 1020.0 - 0.0 - - - - - - -
05/04:30pm 19.1 NE 2 4 1020.1 - 0.0 - - - - - - -
05/04:00pm 19.8 CALM 0 0 1020.1 - 0.0 - - - - - - -
05/03:30pm 19.8 NW 4 5 1020.1 - 0.0 - - - - - - -
05/03:00pm 19.4 NW 5 6 1020.1 - 0.0 - - - - - - -
05/02:30pm 19.0 NNW 4 7 1020.2 - 0.0 - - - - - - -
05/02:00pm 18.9 NW 5 7 1020.5 - 0.0 - - - - - - -
05/01:30pm 19.2 WNW 6 8 1020.7 - 0.0 - - - - - - -
05/01:00pm 18.5 WNW 6 8 1020.9 - 0.0 - - - - - - -
05/12:30pm 18.3 NW 7 10 1021.2 - 0.0 - - - - - - -
05/12:00pm 17.6 WNW 9 11 1021.6 - 0.0 - - - - - - -
05/11:30am 17.4 WNW 11 14 1022.1 - 0.0 - - - - - - -
05/11:00am 17.9 NW 11 15 1022.5 - 0.0 - - - - - - -
05/10:30am 19.0 NW 7 12 1022.6 - 0.0 - - - - - - -
05/10:00am 19.0 S 7 10 1022.6 - 0.0 - - - - - - -
05/09:30am 18.5 S 8 11 1022.7 - 0.0 - - - - - - -
05/09:00am 18.1 S 7 10 1022.5 - 0.8 - - - - - - -
05/08:30am 17.5 SSE 9 11 1022.2 - 0.8 - - - - - - -
05/08:00am 17.1 SSE 10 13 1021.8 - 0.8 - - - - - - -
05/07:30am 16.4 S 12 13 1021.4 - 0.8 - - - - - - -
05/07:00am 16.1 S 11 12 1021.2 - 0.8 - - - - - - -
05/06:30am 16.2 S 12 14 1020.9 - 0.8 - - - - - - -
05/06:00am 16.2 S 13 14 1020.7 - 0.8 - - - - - - -
05/05:30am 15.9 S 13 14 1020.4 - 0.8 - - - - - - -
05/05:00am 16.0 SSW 12 14 1020.2 - 0.8 - - - - - - -
05/04:30am 16.2 S 12 14 1020.1 - 0.8 - - - - - - -
05/04:00am 16.5 SSE 12 15 1020.1 - 0.8 - - - - - - -
05/03:30am 16.5 S 9 10 1020.2 - 0.8 - - - - - - -
05/03:00am 16.1 SSW 10 11 1020.4 - 0.8 - - - - - - -
05/02:30am 15.1 SSW 10 11 1020.6 - 0.8 - - - - - - -
05/02:00am 15.5 S 7 8 1021.2 - 0.8 - - - - - - -
05/01:30am 15.9 SSW 4 5 1021.5 - 0.8 - - - - - - -
05/01:00am 16.0 WNW 2 5 1021.8 - 0.8 - - - - - - -
05/12:30am 16.1 SW 2 5 1021.9 - 0.8 - - - - - - -
05/12:00am 16.0 ENE 7 11 1022.0 - 0.8 Recent precip. - - - - - -
 
Date/Time
EST
Temp

°C
Wind Pressure Rain
since 9am
mm
Weather Cloud Vis
km
Sea
Height
m
Swell
Dir
 
Speed
knots
Gust
knots
hPa Trend Height
m
Period
s
Dir
04/11:30pm 15.6 SSW 12 14 1022.1 - 0.8 - - - - - - -
04/11:00pm 16.1 SSE 11 16 1022.2 - 0.6 - - - - - - -
04/10:30pm 16.7 SSE 6 9 1022.2 - 0.6 - - - - - - -
04/10:00pm 16.4 SE 10 12 1022.1 - 0.6 - - - - - - -
04/09:30pm 17.3 S 10 13 1021.9 - 0.0 - - - - - - -
04/09:00pm 17.3 S 10 12 1022.0 - 0.0 - - - - - - -
04/08:30pm 17.3 S 10 12 1022.0 - 0.0 - - - - - - -
04/08:00pm 17.4 S 10 12 1022.0 - 0.0 - - - - - - -
04/07:30pm 17.8 SSE 11 13 1021.8 - 0.0 - - - - - - -

Other Formats:

Comma delimited format used in spreadsheet applications
http://www.bom.gov.au/fwo/IDQ60701/IDQ60701.94584.axf

JavaScript Object Notation format (JSON) in row-major order
http://www.bom.gov.au/fwo/IDQ60701/IDQ60701.94584.json